Terminal Aerodrome Forecast
Issued by NWS Cleveland, OH

Home | Current Version | Previous Version | Graphics & Text | Print | Product List | Glossary On
Versions: 1 2 3 4 5 6 7 8 9 10 11 12 13 14 15 16 17 18 19 20 21 22 23 24
000
FTUS41 KCLE 191620 AAB
TAFMFD
TAF AMD
KMFD 191620Z 1916/2012 05007KT P6SM VCTS SCT010 BKN035CB
      TEMPO 1916/1918 -TSRA BKN012CB
     FM191800 02010KT P6SM VCSH SCT025 OVC035
     FM200200 05006KT P6SM BKN035 OVC100=

USA.gov is the U.S. government's official web portal to all federal, state and local government web resources and services.